Decoded Metar for GMME (RABAT in MOROCCO) (IATA:RBA) | Meteo·Mobile Aviation Weather
aviador You're here:

GMME Decoded Metar

RABAT in MOROCCO
Report Time2019-01-18 13:30:00
UTC Time2019-01-18 13:38:12
Flight Rules vfr VFR
Wind310° at 07 kt
W.Decomp.*RWY 03: 1.5 kt HW 6.8 kt LCW
W.Rank310° ranks 6
Current wind is above 310° avg. (6.8)
Visibility9999 m
Phenomena:N/A
Clouds:Scattered TCU 020 Hf
Scattered 100 Hf
Expected CloudBase > 3,200 ft AGL from Temp-Dew spread
CeilingNone
Temp16°C (ISA +1)
Dew Point08°C (59% RH)
AAT13.0°C
QNH1020 hPa
Density Alt331 ft
Elevation246 ft
Report Wrong Elevation
Raw Report
METAR GMME 181330Z 31007KT 280V360 9999 SCT020TCU SCT100 16/08 Q1020
NOSIG=

Extra information for GMME:More info

Metar Taf Metar & Taf Last 4 Metars F.Rules Stats Wind Profile Meteogram Temp Stats Airport Information Weather charts Add Link Nearby VenuesMetar ALERT Operation Metar Decoded Social comments